Time;durP1;ratioP1;P1;durP2;ratioP2;P2;SDS_P1;SDS_P2;PMS_P1;PMS_P2;Temp;Humidity;BMP_temperature;BMP_pressure;BME280_temperature;BME280_humidity;BME280_pressure;Samples;Min_cycle;Max_cycle;Signal;HPM_P1;HPM_P2
2021/04/20 00:01:36;;;;;;;99.40;50.47;;;6.70;99.90;;;;;;5048489;28;20021;-56
2021/04/20 00:04:04;;;;;;;97.35;50.90;;;6.70;99.90;;;;;;5050090;28;20045;-57
2021/04/20 00:06:30;;;;;;;99.68;52.78;;;6.70;99.90;;;;;;5048808;28;20060;-53
2021/04/20 00:08:55;;;;;;;99.35;52.95;;;6.60;99.90;;;;;;5037751;28;20108;-54
2021/04/20 00:11:21;;;;;;;102.13;51.17;;;6.50;99.90;;;;;;5047404;28;20427;-55
2021/04/20 00:13:46;;;;;;;107.28;47.78;;;6.50;99.90;;;;;;5045711;28;20459;-55
2021/04/20 00:16:12;;;;;;;97.60;50.55;;;6.50;99.90;;;;;;5049904;28;20091;-54
2021/04/20 00:18:38;;;;;;;93.30;48.97;;;6.40;99.90;;;;;;5046695;28;20040;-53
2021/04/20 00:21:03;;;;;;;101.20;47.90;;;6.30;99.90;;;;;;5043303;28;20029;-56
2021/04/20 00:23:29;;;;;;;93.80;48.67;;;6.20;99.90;;;;;;5048234;28;20483;-54
2021/04/20 00:25:55;;;;;;;97.18;48.47;;;6.10;99.90;;;;;;5048593;28;20040;-53
2021/04/20 00:28:28;;;;;;;94.93;47.88;;;6.00;99.90;;;;;;5043730;28;20083;-57
2021/04/20 00:30:54;;;;;;;100.15;49.13;;;6.10;99.90;;;;;;5048834;28;20025;-57
2021/04/20 00:33:21;;;;;;;96.15;50.00;;;6.10;99.90;;;;;;5036481;28;20411;-56
2021/04/20 00:35:47;;;;;;;104.35;52.33;;;6.10;99.90;;;;;;5048349;28;20021;-53
2021/04/20 00:38:12;;;;;;;92.95;49.00;;;6.10;99.90;;;;;;5048075;28;20548;-55
2021/04/20 00:40:38;;;;;;;105.57;52.35;;;6.10;99.90;;;;;;5026901;28;20562;-53
2021/04/20 00:43:05;;;;;;;108.43;52.35;;;6.10;99.90;;;;;;5044389;28;20029;-53
2021/04/20 00:45:33;;;;;;;93.07;49.80;;;6.10;99.90;;;;;;5045362;28;20402;-55
2021/04/20 00:48:00;;;;;;;100.60;49.40;;;6.00;99.90;;;;;;5050027;28;20116;-57
2021/04/20 00:50:37;;;;;;;102.35;50.42;;;5.90;99.90;;;;;;5043674;28;20031;-52
2021/04/20 00:53:04;;;;;;;104.68;52.47;;;5.90;99.90;;;;;;5038680;28;20033;-52
2021/04/20 00:55:30;;;;;;;109.88;50.90;;;5.90;99.90;;;;;;5048681;28;20029;-53
2021/04/20 00:57:55;;;;;;;112.25;54.92;;;5.90;99.90;;;;;;5048275;28;20091;-54
2021/04/20 01:00:27;;;;;;;111.40;55.42;;;5.90;99.90;;;;;;5049276;28;20037;-56
2021/04/20 01:02:53;;;;;;;105.13;52.88;;;5.90;99.90;;;;;;5043045;28;20029;-54
2021/04/20 01:05:36;;;;;;;95.45;49.40;;;5.90;99.90;;;;;;5048961;28;20104;-57
2021/04/20 01:08:07;;;;;;;110.60;48.47;;;5.80;99.90;;;;;;5047737;28;20098;-57
2021/04/20 01:10:34;;;;;;;101.68;49.97;;;5.80;99.90;;;;;;5047590;28;20033;-56
2021/04/20 01:13:02;;;;;;;103.95;50.08;;;5.80;99.90;;;;;;5039805;28;20407;-55
2021/04/20 01:15:30;;;;;;;106.68;52.78;;;5.90;99.90;;;;;;5045126;28;20037;-53
2021/04/20 01:17:55;;;;;;;101.07;51.70;;;5.90;99.90;;;;;;5045637;28;20084;-53
2021/04/20 01:20:21;;;;;;;103.70;50.47;;;6.00;99.90;;;;;;5043618;28;20447;-57
2021/04/20 01:22:48;;;;;;;106.07;51.17;;;6.00;99.90;;;;;;5042049;28;20033;-54
2021/04/20 01:25:15;;;;;;;96.18;47.47;;;5.90;99.90;;;;;;5042435;28;20469;-52
2021/04/20 01:27:42;;;;;;;84.70;45.03;;;5.70;99.90;;;;;;5041712;28;21340;-52
2021/04/20 01:30:10;;;;;;;97.82;46.15;;;5.60;99.90;;;;;;5048943;28;20010;-55
2021/04/20 01:32:38;;;;;;;90.60;47.08;;;5.60;99.90;;;;;;5044949;28;20029;-55
2021/04/20 01:35:06;;;;;;;95.10;47.88;;;5.60;99.90;;;;;;5047121;28;20391;-53
2021/04/20 01:37:32;;;;;;;97.25;47.10;;;5.60;99.90;;;;;;5046239;28;20036;-54
2021/04/20 01:39:58;;;;;;;92.95;46.35;;;5.50;99.90;;;;;;5043484;28;20025;-56
2021/04/20 01:42:23;;;;;;;98.85;48.70;;;5.50;99.90;;;;;;5051863;28;20765;-54
2021/04/20 01:44:49;;;;;;;98.57;49.30;;;5.40;99.90;;;;;;5044555;28;20029;-53
2021/04/20 01:47:15;;;;;;;110.32;51.38;;;5.30;99.90;;;;;;5048208;28;20021;-52
2021/04/20 01:49:42;;;;;;;102.18;49.40;;;5.40;99.90;;;;;;5051379;28;20547;-54
2021/04/20 01:52:08;;;;;;;100.07;50.38;;;5.40;99.90;;;;;;5051796;28;20487;-56
2021/04/20 01:54:33;;;;;;;100.22;48.65;;;5.40;99.90;;;;;;5051229;28;20045;-54
2021/04/20 01:57:01;;;;;;;96.00;48.63;;;5.40;99.90;;;;;;5051541;28;20036;-54
2021/04/20 01:59:27;;;;;;;95.28;47.30;;;5.30;99.90;;;;;;5049428;28;20163;-56
2021/04/20 02:01:53;;;;;;;91.20;47.72;;;5.30;99.90;;;;;;5050248;28;20107;-53
2021/04/20 02:04:18;;;;;;;92.78;46.47;;;5.30;99.90;;;;;;5046371;28;20026;-53
2021/04/20 02:06:44;;;;;;;86.15;44.97;;;5.30;99.90;;;;;;5052278;28;20036;-56
2021/04/20 02:09:10;;;;;;;79.97;46.88;;;5.20;99.90;;;;;;5047457;28;20032;-55
2021/04/20 02:11:36;;;;;;;77.80;43.10;;;5.20;99.90;;;;;;5042386;28;20082;-55
2021/04/20 02:14:03;;;;;;;77.30;44.33;;;5.10;99.90;;;;;;5045867;28;20028;-56
2021/04/20 02:16:28;;;;;;;80.05;44.85;;;5.10;99.90;;;;;;5046985;28;20108;-56
2021/04/20 02:19:00;;;;;;;91.30;47.88;;;5.00;99.90;;;;;;5051456;28;20159;-56
2021/04/20 02:21:27;;;;;;;97.93;49.15;;;4.90;99.90;;;;;;5044605;28;20033;-57
2021/04/20 02:23:54;;;;;;;106.65;50.10;;;4.80;99.90;;;;;;5046992;28;20067;-57
2021/04/20 02:26:27;;;;;;;97.57;49.88;;;4.80;99.90;;;;;;5051548;28;20390;-52
2021/04/20 02:28:56;;;;;;;88.13;45.28;;;4.90;99.90;;;;;;5044222;28;20100;-52
2021/04/20 02:31:22;;;;;;;88.30;45.05;;;5.00;99.90;;;;;;5051702;28;20048;-52
2021/04/20 02:33:49;;;;;;;81.22;43.38;;;5.10;99.90;;;;;;5047604;28;20095;-55
2021/04/20 02:36:15;;;;;;;73.35;40.05;;;5.10;99.90;;;;;;5051848;28;20438;-52
2021/04/20 02:38:44;;;;;;;73.47;40.97;;;5.20;99.90;;;;;;5051145;28;20029;-52
2021/04/20 02:41:14;;;;;;;77.40;41.72;;;5.30;99.90;;;;;;5045948;28;20029;-55
2021/04/20 02:43:40;;;;;;;72.75;39.55;;;5.30;99.90;;;;;;5049992;28;20406;-52
2021/04/20 02:46:05;;;;;;;74.68;40.85;;;5.30;99.90;;;;;;5051935;28;20025;-52
2021/04/20 02:48:31;;;;;;;76.95;41.22;;;5.30;99.90;;;;;;5047048;28;20036;-55
2021/04/20 02:50:57;;;;;;;73.25;39.15;;;5.20;99.90;;;;;;5044849;28;20029;-55
2021/04/20 02:53:25;;;;;;;76.90;40.10;;;5.20;99.90;;;;;;5047213;28;20079;-55
2021/04/20 02:55:51;;;;;;;84.05;41.35;;;5.10;99.90;;;;;;5050041;28;20021;-56
2021/04/20 02:58:21;;;;;;;82.97;42.25;;;5.00;99.90;;;;;;5046148;28;20036;-55
2021/04/20 03:00:53;;;;;;;77.03;40.10;;;4.90;99.90;;;;;;5050884;28;20100;-57
2021/04/20 03:03:19;;;;;;;85.85;41.33;;;4.70;99.90;;;;;;5051102;28;20037;-54
2021/04/20 03:05:45;;;;;;;86.82;43.72;;;4.70;99.90;;;;;;5050034;28;20545;-56
2021/04/20 03:08:11;;;;;;;82.10;41.15;;;4.70;99.90;;;;;;5045379;28;20025;-56
2021/04/20 03:10:41;;;;;;;86.65;43.42;;;4.70;99.90;;;;;;5050905;28;20075;-56
2021/04/20 03:13:07;;;;;;;85.20;41.45;;;4.60;99.90;;;;;;5047494;28;20035;-57
2021/04/20 03:15:34;;;;;;;82.75;41.58;;;4.70;99.90;;;;;;5049822;28;20838;-55
2021/04/20 03:18:00;;;;;;;80.35;40.38;;;4.60;99.90;;;;;;5048165;28;20071;-55
2021/04/20 03:20:25;;;;;;;85.20;41.95;;;4.60;99.90;;;;;;5050868;28;20060;-53
2021/04/20 03:22:52;;;;;;;88.05;42.17;;;4.60;99.90;;;;;;5048879;28;20108;-51
2021/04/20 03:25:19;;;;;;;82.85;42.63;;;4.60;99.90;;;;;;5069763;22;20038;-58
2021/04/20 03:27:48;;;;;;;95.80;44.20;;;4.60;99.90;;;;;;5061794;28;20024;-59
2021/04/20 03:30:16;;;;;;;90.20;43.83;;;4.50;99.90;;;;;;5065106;28;20043;-58
2021/04/20 03:32:53;;;;;;;93.55;45.40;;;4.50;99.90;;;;;;5070474;28;20090;-59
2021/04/20 03:35:42;;;;;;;92.07;42.53;;;4.40;99.90;;;;;;5070716;28;20028;-58
2021/04/20 03:38:21;;;;;;;90.88;41.90;;;4.40;99.90;;;;;;5061807;28;20058;-58
2021/04/20 03:40:51;;;;;;;85.95;41.05;;;4.40;99.90;;;;;;5062950;28;20027;-56
2021/04/20 03:43:19;;;;;;;81.63;39.42;;;4.40;99.90;;;;;;5058290;28;20044;-58
2021/04/20 03:45:59;;;;;;;81.90;39.60;;;4.50;99.90;;;;;;5062986;28;20059;-57
2021/04/20 03:48:56;;;;;;;78.07;38.20;;;4.50;99.90;;;;;;5058465;28;20025;-56
2021/04/20 03:51:27;;;;;;;84.10;40.63;;;4.40;99.90;;;;;;5070537;28;20394;-58
2021/04/20 03:53:55;;;;;;;85.97;41.85;;;4.20;99.90;;;;;;5069696;28;20032;-58
2021/04/20 03:56:26;;;;;;;86.80;38.83;;;4.10;99.90;;;;;;5064071;28;20494;-59
2021/04/20 03:58:55;;;;;;;80.50;39.55;;;4.10;99.90;;;;;;5070001;28;20028;-58
2021/04/20 04:01:21;;;;;;;78.90;36.83;;;4.20;99.90;;;;;;5066375;28;20102;-58
2021/04/20 04:03:48;;;;;;;82.00;38.08;;;4.20;99.90;;;;;;5068440;28;20063;-56
2021/04/20 04:06:18;;;;;;;78.72;36.63;;;4.30;99.90;;;;;;5066522;28;20025;-57
2021/04/20 04:08:44;;;;;;;72.13;36.22;;;4.40;99.90;;;;;;5069081;28;20029;-58
2021/04/20 04:11:11;;;;;;;62.55;32.67;;;4.50;99.90;;;;;;5069996;28;20024;-58
2021/04/20 04:13:41;;;;;;;64.13;33.33;;;4.50;99.90;;;;;;5062761;28;20016;-59
2021/04/20 04:16:09;;;;;;;69.63;34.08;;;4.50;99.90;;;;;;5068125;28;20032;-59
2021/04/20 04:18:36;;;;;;;68.03;34.28;;;4.50;99.90;;;;;;5066922;28;20032;-58
2021/04/20 04:21:04;;;;;;;68.20;34.55;;;4.40;99.90;;;;;;5070419;28;20102;-59
2021/04/20 04:23:46;;;;;;;68.03;34.65;;;4.30;99.90;;;;;;5068744;28;20094;-58
2021/04/20 04:26:16;;;;;;;69.07;32.00;;;4.20;99.90;;;;;;5069327;28;20494;-57
2021/04/20 04:28:46;;;;;;;65.38;35.15;;;4.20;99.90;;;;;;5063536;28;20052;-59
2021/04/20 04:31:14;;;;;;;64.32;32.13;;;4.20;99.90;;;;;;5059985;28;20017;-59
2021/04/20 04:33:41;;;;;;;57.90;30.30;;;4.30;99.90;;;;;;5063096;28;20450;-58
2021/04/20 04:36:09;;;;;;;60.55;32.45;;;4.20;99.90;;;;;;5066540;28;20046;-58
2021/04/20 04:38:37;;;;;;;63.17;33.30;;;4.10;99.90;;;;;;5069678;28;20031;-57
2021/04/20 04:41:03;;;;;;;71.78;33.40;;;4.10;99.90;;;;;;5062835;28;20025;-58
2021/04/20 04:43:29;;;;;;;65.22;32.75;;;4.00;99.90;;;;;;5068741;28;20032;-58
2021/04/20 04:45:56;;;;;;;68.10;32.88;;;4.00;99.90;;;;;;5059668;28;20021;-58
2021/04/20 04:48:24;;;;;;;59.67;30.85;;;4.00;99.90;;;;;;5066996;28;20024;-58
2021/04/20 04:50:51;;;;;;;59.83;28.73;;;4.00;99.90;;;;;;5060204;28;20103;-59
2021/04/20 04:53:18;;;;;;;60.97;31.45;;;4.10;99.90;;;;;;5067798;28;20028;-58
2021/04/20 04:55:43;;;;;;;55.95;31.80;;;4.20;99.90;;;;;;5067640;28;20024;-57
2021/04/20 04:58:09;;;;;;;57.95;29.70;;;4.30;99.90;;;;;;5068216;28;20167;-58
2021/04/20 05:00:36;;;;;;;58.55;28.13;;;4.40;99.90;;;;;;5061046;28;20040;-58
2021/04/20 05:03:05;;;;;;;49.55;26.33;;;4.50;99.90;;;;;;5060779;28;20033;-58
2021/04/20 05:05:32;;;;;;;49.95;26.95;;;4.50;99.90;;;;;;5059929;28;20462;-60
2021/04/20 05:08:01;;;;;;;52.42;27.48;;;4.60;99.90;;;;;;5062008;28;20039;-61
2021/04/20 05:10:27;;;;;;;54.03;27.55;;;4.50;99.90;;;;;;5057882;28;20402;-60
2021/04/20 05:12:53;;;;;;;53.67;27.20;;;4.50;99.90;;;;;;5067016;28;20039;-58
2021/04/20 05:15:21;;;;;;;50.17;26.70;;;4.50;99.90;;;;;;5067951;28;20032;-59
2021/04/20 05:17:47;;;;;;;60.70;29.20;;;4.40;99.90;;;;;;5066579;28;20114;-60
2021/04/20 05:20:17;;;;;;;85.50;39.05;;;4.40;99.90;;;;;;5064875;28;20103;-59
2021/04/20 05:22:46;;;;;;;68.25;32.10;;;4.50;99.90;;;;;;5068137;28;20028;-59
2021/04/20 05:25:15;;;;;;;57.30;29.38;;;4.50;99.90;;;;;;5062598;28;20051;-58
2021/04/20 05:27:41;;;;;;;53.50;27.45;;;4.60;99.90;;;;;;5065711;28;20033;-58
2021/04/20 05:30:08;;;;;;;53.55;28.40;;;4.60;99.90;;;;;;5060013;28;20067;-60
2021/04/20 05:32:36;;;;;;;48.45;27.35;;;4.70;99.90;;;;;;5063009;28;20024;-59
2021/04/20 05:35:03;;;;;;;48.00;26.33;;;4.80;99.90;;;;;;5057512;28;20394;-58
2021/04/20 05:37:42;;;;;;;50.42;26.60;;;4.90;99.90;;;;;;5068713;28;20027;-57
2021/04/20 05:40:13;;;;;;;50.83;26.85;;;5.00;99.90;;;;;;5068170;28;20413;-59
2021/04/20 05:42:39;;;;;;;52.78;25.35;;;5.00;99.90;;;;;;5056977;28;20490;-58
2021/04/20 05:45:06;;;;;;;50.88;26.45;;;5.10;99.90;;;;;;5067978;28;20029;-60
2021/04/20 05:47:32;;;;;;;46.75;25.65;;;5.20;99.90;;;;;;5068864;28;20051;-57
2021/04/20 05:50:00;;;;;;;47.25;25.08;;;5.30;99.90;;;;;;5066596;28;20401;-59
2021/04/20 05:52:26;;;;;;;47.72;26.02;;;5.40;99.90;;;;;;5062987;28;20098;-58
2021/04/20 05:54:58;;;;;;;42.85;24.50;;;5.40;99.90;;;;;;5068915;28;20162;-59
2021/04/20 05:57:25;;;;;;;46.65;25.48;;;5.50;99.90;;;;;;5068045;28;20021;-57
2021/04/20 05:59:56;;;;;;;51.53;26.67;;;5.60;99.90;;;;;;5065484;28;20437;-59
2021/04/20 06:02:23;;;;;;;53.08;29.02;;;5.60;99.90;;;;;;5068044;28;20458;-60
2021/04/20 06:04:59;;;;;;;58.53;28.83;;;5.70;99.90;;;;;;5067207;28;20032;-59
2021/04/20 06:07:26;;;;;;;54.53;31.73;;;5.80;99.90;;;;;;5063525;28;20013;-60
2021/04/20 06:09:52;;;;;;;61.35;32.28;;;5.90;99.90;;;;;;5063353;28;20039;-59
2021/04/20 06:12:18;;;;;;;61.38;31.52;;;5.90;99.90;;;;;;5064117;28;20104;-61
2021/04/20 06:14:44;;;;;;;55.35;31.27;;;6.00;99.90;;;;;;5065329;28;20227;-59
2021/04/20 06:17:12;;;;;;;70.40;34.90;;;6.10;99.90;;;;;;5068676;28;20024;-59
2021/04/20 06:19:39;;;;;;;59.75;32.72;;;6.20;99.90;;;;;;5066383;28;20036;-60
2021/04/20 06:22:11;;;;;;;62.22;34.08;;;6.30;99.90;;;;;;5063458;28;20498;-60
2021/04/20 06:24:37;;;;;;;69.22;34.70;;;6.40;99.90;;;;;;5067196;28;20067;-60
2021/04/20 06:27:03;;;;;;;64.85;34.08;;;6.50;99.90;;;;;;5067058;28;20524;-59
2021/04/20 06:29:29;;;;;;;60.63;33.83;;;6.60;99.90;;;;;;5070597;28;20078;-59
2021/04/20 06:31:55;;;;;;;61.63;33.05;;;6.60;99.90;;;;;;5066773;28;20033;-60
2021/04/20 06:34:26;;;;;;;64.93;33.17;;;6.70;99.90;;;;;;5064644;28;20040;-58
2021/04/20 06:36:53;;;;;;;59.67;33.20;;;6.80;99.90;;;;;;5066539;28;20024;-59
2021/04/20 06:39:20;;;;;;;60.15;32.55;;;6.90;99.90;;;;;;5069029;28;20021;-60
2021/04/20 06:41:51;;;;;;;67.45;35.05;;;7.00;99.90;;;;;;5069799;28;20827;-59
2021/04/20 06:44:25;;;;;;;65.43;34.97;;;7.00;99.90;;;;;;5065765;28;20025;-59
2021/04/20 06:46:58;;;;;;;62.70;35.65;;;7.10;99.90;;;;;;5064867;28;20490;-60
2021/04/20 06:49:39;;;;;;;60.47;34.43;;;7.20;99.90;;;;;;5071392;28;20029;-60
2021/04/20 06:52:11;;;;;;;59.40;35.35;;;7.30;99.90;;;;;;5067049;28;20305;-60
2021/04/20 06:54:46;;;;;;;68.90;37.53;;;7.30;99.90;;;;;;5072701;28;20490;-60
2021/04/20 06:57:21;;;;;;;;;;;7.40;99.90;;;;;;5069085;28;20060;-60
2021/04/20 07:00:09;;;;;;;67.82;36.72;;;7.40;99.90;;;;;;5064924;28;20376;-59
2021/04/20 07:02:49;;;;;;;68.18;36.42;;;7.50;99.90;;;;;;5060339;28;20029;-59
2021/04/20 07:05:28;;;;;;;80.00;40.60;;;7.60;99.90;;;;;;5066070;28;20134;-59
2021/04/20 07:08:27;;;;;;;73.13;37.42;;;7.70;99.90;;;;;;5067881;28;20021;-59
2021/04/20 07:10:56;;;;;;;75.78;39.45;;;7.80;99.90;;;;;;5064169;28;20074;-59
2021/04/20 07:13:25;;;;;;;84.25;43.08;;;7.90;99.90;;;;;;5063210;28;20025;-59
2021/04/20 07:16:04;;;;;;;115.80;55.55;;;7.90;99.90;;;;;;5067828;28;20029;-59
2021/04/20 07:18:43;;;;;;;96.93;49.45;;;8.00;99.90;;;;;;5067761;28;20498;-59
2021/04/20 07:21:23;;;;;;;109.38;52.47;;;8.10;99.90;;;;;;5065947;28;20026;-59
2021/04/20 07:24:17;;;;;;;101.88;49.88;;;8.30;99.90;;;;;;5068239;28;20032;-58
2021/04/20 07:26:51;;;;;;;90.38;46.78;;;8.30;99.90;;;;;;5069146;28;20025;-60
2021/04/20 07:29:35;;;;;;;67.93;33.80;;;8.40;99.90;;;;;;5068037;28;20021;-62
2021/04/20 07:32:16;;;;;;;96.80;49.25;;;8.50;99.90;;;;;;5068391;28;20016;-60
2021/04/20 07:35:06;;;;;;;99.22;50.15;;;8.50;99.90;;;;;;5064933;28;20047;-60
2021/04/20 07:37:49;;;;;;;95.28;48.80;;;8.60;99.90;;;;;;5059753;28;20024;-60
2021/04/20 07:40:35;;;;;;;97.32;48.00;;;8.70;99.90;;;;;;5064274;28;20069;-59
2021/04/20 07:43:36;;;;;;;98.05;47.78;;;8.80;99.90;;;;;;5062848;28;20089;-60
2021/04/20 07:46:20;;;;;;;83.82;44.15;;;9.00;99.90;;;;;;5059074;28;20498;-61
2021/04/20 07:48:49;;;;;;;96.80;51.50;;;9.10;99.90;;;;;;5068320;28;20024;-59
2021/04/20 07:51:49;;;;;;;97.07;50.20;;;9.20;99.90;;;;;;5063617;28;20028;-59
2021/04/20 07:54:35;;;;;;;96.63;50.65;;;9.30;99.90;;;;;;5065195;28;20073;-59
2021/04/20 07:57:09;;;;;;;107.05;54.72;;;9.40;99.90;;;;;;5067927;28;20257;-60
2021/04/20 07:59:52;;;;;;;102.85;53.70;;;9.50;99.90;;;;;;5068061;28;20028;-61
2021/04/20 08:02:34;;;;;;;101.03;53.05;;;9.50;99.90;;;;;;5060932;28;20566;-57
2021/04/20 08:05:08;;;;;;;120.75;60.92;;;9.70;99.90;;;;;;5067916;28;20040;-60
2021/04/20 08:07:55;;;;;;;111.43;56.05;;;9.70;99.90;;;;;;5067506;28;20032;-60
2021/04/20 08:10:25;;;;;;;116.28;56.58;;;9.90;99.90;;;;;;5053560;28;20087;-60
2021/04/20 08:13:13;;;;;;;101.55;52.33;;;10.00;99.90;;;;;;5065522;28;20042;-61
2021/04/20 08:15:52;;;;;;;102.85;55.45;;;10.10;99.90;;;;;;5067724;28;20021;-60
2021/04/20 08:18:25;;;;;;;108.35;54.22;;;10.20;99.90;;;;;;5067997;28;20036;-60
2021/04/20 08:20:52;;;;;;;113.87;53.53;;;10.30;99.90;;;;;;5068384;28;20639;-61
2021/04/20 08:23:19;;;;;;;96.72;51.63;;;10.40;99.90;;;;;;5060384;28;20028;-59
2021/04/20 08:25:52;;;;;;;92.18;49.67;;;10.50;99.90;;;;;;5065203;28;20051;-60
2021/04/20 08:28:31;;;;;;;92.82;48.53;;;10.60;99.90;;;;;;5064449;28;20040;-59
2021/04/20 08:31:09;;;;;;;95.03;48.38;;;10.70;99.90;;;;;;5069664;28;20024;-60
2021/04/20 08:33:39;;;;;;;98.47;50.92;;;10.80;99.90;;;;;;5070202;28;20052;-61
2021/04/20 08:36:29;;;;;;;93.82;51.00;;;10.90;99.90;;;;;;5070422;28;20493;-60
2021/04/20 08:39:18;;;;;;;95.53;51.13;;;11.00;99.90;;;;;;5068004;28;20439;-58
2021/04/20 08:41:54;;;;;;;84.10;45.90;;;11.10;99.90;;;;;;5081813;28;20024;-60
2021/04/20 08:44:36;;;;;;;92.00;49.28;;;11.30;99.90;;;;;;5065590;28;20132;-60
2021/04/20 08:47:02;;;;;;;91.18;51.30;;;11.40;99.90;;;;;;5068497;28;20032;-60
2021/04/20 08:49:52;;;;;;;88.05;48.08;;;11.50;99.90;;;;;;5068393;28;20024;-60
2021/04/20 08:52:31;;;;;;;90.00;47.60;;;11.60;99.90;;;;;;5063540;28;20033;-60
2021/04/20 08:55:27;;;;;;;86.85;48.22;;;11.70;99.90;;;;;;5067876;28;20028;-60
2021/04/20 08:58:30;;;;;;;98.47;48.25;;;11.80;99.90;;;;;;5056778;28;20028;-60
2021/04/20 09:01:07;;;;;;;80.63;43.63;;;12.10;99.90;;;;;;5065461;28;20036;-60
2021/04/20 09:03:52;;;;;;;71.55;42.10;;;12.20;99.90;;;;;;5063786;28;20437;-60
2021/04/20 09:06:40;;;;;;;72.38;40.88;;;12.40;99.90;;;;;;5062570;28;20016;-60
2021/04/20 09:09:07;;;;;;;64.90;37.65;;;12.50;99.90;;;;;;5062506;28;20495;-59
2021/04/20 09:11:40;;;;;;;73.45;40.97;;;12.50;99.90;;;;;;5063778;28;20053;-60
2021/04/20 09:14:08;;;;;;;69.25;40.03;;;12.60;99.90;;;;;;5066499;28;20043;-60
2021/04/20 09:16:50;;;;;;;66.32;37.05;;;12.70;99.90;;;;;;5068792;28;20107;-60
2021/04/20 09:19:31;;;;;;;59.40;34.92;;;12.90;99.90;;;;;;5065347;28;20024;-60
2021/04/20 09:22:06;;;;;;;59.20;32.90;;;13.20;99.90;;;;;;5068724;28;20031;-60
2021/04/20 09:25:10;;;;;;;56.65;31.70;;;13.40;99.90;;;;;;5076715;22;20020;-57
2021/04/20 09:27:57;;;;;;;50.25;29.02;;;13.60;99.90;;;;;;5048351;28;20054;-56
2021/04/20 09:30:26;;;;;;;65.32;31.27;;;13.50;99.90;;;;;;5043635;28;20020;-56
2021/04/20 09:33:11;;;;;;;57.35;29.77;;;13.70;99.90;;;;;;5045142;28;20029;-54
2021/04/20 09:35:38;;;;;;;47.03;28.17;;;14.00;99.90;;;;;;5041675;28;20025;-53
2021/04/20 09:38:08;;;;;;;56.95;28.17;;;13.90;99.90;;;;;;5030636;28;20511;-56
2021/04/20 09:40:35;;;;;;;64.80;29.52;;;14.10;99.90;;;;;;5031256;28;20057;-55
2021/04/20 09:43:20;;;;;;;74.78;28.75;;;14.30;99.90;;;;;;5030662;28;20080;-57
2021/04/20 09:45:53;;;;;;;69.82;27.88;;;14.40;99.90;;;;;;5033356;28;20025;-56
2021/04/20 09:48:31;;;;;;;42.90;24.50;;;14.60;99.90;;;;;;5030239;28;20029;-52
2021/04/20 09:51:09;;;;;;;57.28;24.13;;;14.70;99.90;;;;;;5034494;28;20276;-56
2021/04/20 09:54:02;;;;;;;41.78;22.25;;;14.90;99.90;;;;;;5032517;28;20040;-52
2021/04/20 09:56:39;;;;;;;70.75;27.30;;;15.30;99.90;;;;;;5029071;28;20025;-56
2021/04/20 09:59:28;;;;;;;36.38;21.92;;;15.60;99.90;;;;;;5033231;28;20033;-57
2021/04/20 10:02:37;;;;;;;43.58;23.30;;;15.70;99.90;;;;;;5035340;28;20021;-54
2021/04/20 10:05:40;;;;;;;33.15;20.80;;;15.50;99.90;;;;;;5039957;28;20112;-57
2021/04/20 10:08:15;;;;;;;40.13;23.05;;;15.10;99.90;;;;;;5036808;28;20028;-55
2021/04/20 10:11:12;;;;;;;72.80;25.67;;;14.80;99.90;;;;;;5037651;28;20030;-54
2021/04/20 10:13:52;;;;;;;32.10;20.40;;;14.60;99.90;;;;;;5041658;28;20025;-54
2021/04/20 10:16:46;;;;;;;79.40;24.58;;;14.40;99.90;;;;;;5031818;28;20057;-55
2021/04/20 10:19:21;;;;;;;43.78;20.80;;;14.30;99.90;;;;;;5031419;28;20041;-52
2021/04/20 10:22:04;;;;;;;188.10;33.10;;;14.30;99.90;;;;;;5035035;28;20100;-54
2021/04/20 10:24:32;;;;;;;46.40;21.38;;;14.30;99.90;;;;;;5042238;28;20029;-53
2021/04/20 10:27:27;;;;;;;29.27;16.45;;;14.30;99.90;;;;;;5032763;28;20140;-52
2021/04/20 10:29:58;;;;;;;46.33;18.30;;;14.30;99.90;;;;;;5025944;28;20025;-52
2021/04/20 10:32:31;;;;;;;372.88;46.20;;;14.30;99.90;;;;;;5043294;28;20029;-54
2021/04/20 10:34:58;;;;;;;304.08;38.60;;;14.30;99.90;;;;;;5035925;28;20037;-55
2021/04/20 10:37:35;;;;;;;36.63;16.63;;;14.40;99.90;;;;;;5039036;28;20132;-54
2021/04/20 10:40:05;;;;;;;24.67;14.40;;;14.40;99.90;;;;;;5034314;28;20033;-54
2021/04/20 10:42:33;;;;;;;20.67;12.40;;;14.40;99.90;;;;;;5040068;28;20538;-53
2021/04/20 10:45:00;;;;;;;24.35;13.20;;;14.40;99.90;;;;;;5032411;28;20435;-57
2021/04/20 10:47:26;;;;;;;17.77;10.82;;;14.50;99.90;;;;;;5042003;28;20095;-53
2021/04/20 10:49:57;;;;;;;22.55;12.15;;;14.50;99.90;;;;;;5032551;28;20108;-52
2021/04/20 10:52:34;;;;;;;19.80;11.20;;;14.60;99.90;;;;;;5020885;28;20396;-54
2021/04/20 10:55:08;;;;;;;17.92;10.55;;;14.80;99.90;;;;;;5034761;28;20546;-53
2021/04/20 10:57:37;;;;;;;17.35;9.65;;;14.80;99.90;;;;;;5032192;28;20104;-53
2021/04/20 11:00:04;;;;;;;21.73;10.55;;;14.80;99.90;;;;;;5020048;28;20511;-52
2021/04/20 11:02:40;;;;;;;22.15;13.60;;;15.00;99.90;;;;;;5031949;28;20029;-57
2021/04/20 11:05:07;;;;;;;21.92;14.10;;;15.40;99.90;;;;;;5034195;28;20044;-56
2021/04/20 11:07:40;;;;;;;23.08;13.57;;;15.40;99.90;;;;;;5017179;28;20026;-54
2021/04/20 11:10:08;;;;;;;18.02;11.82;;;15.80;99.90;;;;;;5040651;28;20128;-55
2021/04/20 11:12:44;;;;;;;22.25;12.68;;;15.90;99.90;;;;;;5035217;28;20021;-56
2021/04/20 11:15:23;;;;;;;17.42;10.85;;;15.70;99.90;;;;;;5041999;28;20490;-53
2021/04/20 11:17:57;;;;;;;17.17;11.20;;;15.70;99.90;;;;;;5035363;28;20060;-54
2021/04/20 11:20:37;;;;;;;21.13;12.15;;;15.60;99.90;;;;;;5041431;28;20053;-53
2021/04/20 11:23:14;;;;;;;17.35;11.10;;;15.50;99.90;;;;;;5034623;28;20021;-56
2021/04/20 11:25:58;;;;;;;19.08;11.52;;;15.50;99.90;;;;;;5040817;28;20025;-57
2021/04/20 11:28:31;;;;;;;17.20;10.25;;;15.60;99.90;;;;;;5014301;28;20119;-55
2021/04/20 11:31:02;;;;;;;17.52;9.50;;;16.20;99.90;;;;;;5033305;28;20029;-57
2021/04/20 11:33:53;;;;;;;13.55;9.23;;;16.90;99.90;;;;;;5032768;28;20032;-54
2021/04/20 11:36:41;;;;;;;15.38;9.65;;;17.50;99.90;;;;;;5034802;28;20495;-56
2021/04/20 11:39:12;;;;;;;16.55;9.20;;;17.90;99.90;;;;;;5038350;28;20098;-57
2021/04/20 11:41:44;;;;;;;17.10;10.23;;;18.20;99.90;;;;;;5036911;28;20429;-55
2021/04/20 11:44:10;;;;;;;15.15;9.93;;;18.00;99.90;;;;;;5036295;28;20068;-55
2021/04/20 11:46:40;;;;;;;14.35;9.20;;;18.10;99.90;;;;;;5029520;28;20029;-53
2021/04/20 11:49:20;;;;;;;20.08;12.13;;;18.10;99.90;;;;;;5032600;28;20029;-54
2021/04/20 11:51:47;;;;;;;20.00;12.88;;;18.10;99.90;;;;;;5027790;28;20017;-56
2021/04/20 11:54:21;;;;;;;18.25;12.13;;;18.10;99.90;;;;;;5033336;28;20021;-54
2021/04/20 11:56:49;;;;;;;19.63;11.88;;;18.20;99.90;;;;;;5038487;28;20067;-54
2021/04/20 11:59:22;;;;;;;20.02;11.95;;;18.20;99.90;;;;;;5029045;28;20116;-57
2021/04/20 12:01:48;;;;;;;20.13;12.55;;;18.00;99.90;;;;;;5032050;28;20108;-56
2021/04/20 12:04:20;;;;;;;20.65;12.05;;;18.50;99.90;;;;;;5029087;28;20057;-55
2021/04/20 12:06:49;;;;;;;18.55;12.85;;;18.70;99.90;;;;;;5026602;28;20021;-55
2021/04/20 12:09:17;;;;;;;17.30;12.45;;;18.40;99.90;;;;;;5030262;28;20022;-56
2021/04/20 12:11:46;;;;;;;17.90;11.90;;;18.30;99.90;;;;;;5026439;28;20034;-56
2021/04/20 12:14:16;;;;;;;20.85;13.38;;;18.90;99.90;;;;;;5035290;28;20032;-56
2021/04/20 12:16:43;;;;;;;21.75;13.93;;;19.00;99.90;;;;;;5036389;28;20044;-57
2021/04/20 12:19:12;;;;;;;21.50;14.07;;;19.20;99.90;;;;;;5015994;28;20120;-57
2021/04/20 12:21:39;;;;;;;21.30;13.93;;;19.30;99.90;;;;;;5030956;28;20026;-57
2021/04/20 12:24:08;;;;;;;20.75;13.95;;;19.30;99.90;;;;;;5023753;28;20442;-56
2021/04/20 12:26:34;;;;;;;20.73;12.82;;;19.20;99.70;;;;;;5029258;28;20040;-57
2021/04/20 12:29:09;;;;;;;22.73;15.07;;;18.80;99.90;;;;;;5024627;28;20055;-58
2021/04/20 12:31:36;;;;;;;25.50;14.63;;;19.00;99.90;;;;;;5026071;28;20121;-55
2021/04/20 12:34:02;;;;;;;19.75;13.85;;;19.10;99.90;;;;;;5030638;28;20021;-57
2021/04/20 12:36:39;;;;;;;21.88;14.20;;;19.10;99.00;;;;;;5021833;28;20026;-55
2021/04/20 12:39:09;;;;;;;20.80;13.10;;;19.00;99.90;;;;;;5024614;28;20032;-54
2021/04/20 12:41:36;;;;;;;20.17;13.20;;;19.20;99.10;;;;;;5029186;28;20029;-54
2021/04/20 12:44:07;;;;;;;24.95;12.10;;;19.20;98.50;;;;;;5031172;28;20021;-56
2021/04/20 12:46:34;;;;;;;18.48;11.75;;;19.30;99.90;;;;;;5029565;28;20547;-54
2021/04/20 12:49:03;;;;;;;14.52;10.13;;;19.30;98.90;;;;;;5028589;28;20112;-56
2021/04/20 12:51:31;;;;;;;15.13;9.45;;;19.70;97.90;;;;;;5032685;28;20098;-56
2021/04/20 12:53:59;;;;;;;14.38;9.48;;;19.80;98.50;;;;;;5028078;28;20499;-56
2021/04/20 12:56:32;;;;;;;14.30;9.48;;;19.50;96.90;;;;;;5033481;28;20037;-56
2021/04/20 12:59:00;;;;;;;15.23;10.30;;;19.60;96.90;;;;;;5029168;28;20036;-55